Time;durP1;ratioP1;P1;durP2;ratioP2;P2;SDS_P1;SDS_P2;PMS_P1;PMS_P2;Temp;Humidity;BMP_temperature;BMP_pressure;BME280_temperature;BME280_humidity;BME280_pressure;Samples;Min_cycle;Max_cycle;Signal;HPM_P1;HPM_P2
2021/01/22 00:01:41;;;;;;;2.78;1.70;;;5.70;99.90;;;;;;5050267;28;20025;-90
2021/01/22 00:04:07;;;;;;;3.83;1.58;;;5.50;99.90;;;;;;5050776;28;20033;-91
2021/01/22 00:06:34;;;;;;;3.80;1.73;;;5.30;99.90;;;;;;5049300;28;20036;-88
2021/01/22 00:08:59;;;;;;;2.47;1.40;;;5.20;99.90;;;;;;5049857;28;20481;-88
2021/01/22 00:11:25;;;;;;;3.20;2.10;;;5.10;99.90;;;;;;5050813;28;20040;-88
2021/01/22 00:13:51;;;;;;;3.42;1.60;;;5.10;99.90;;;;;;5050078;28;20078;-88
2021/01/22 00:16:17;;;;;;;3.67;1.85;;;5.00;99.90;;;;;;5050211;28;20052;-92
2021/01/22 00:18:45;;;;;;;2.60;1.75;;;5.00;99.90;;;;;;5049854;28;20040;-88
2021/01/22 00:21:13;;;;;;;2.67;1.60;;;4.90;99.90;;;;;;5051188;28;20055;-90
2021/01/22 00:23:39;;;;;;;3.58;1.95;;;4.90;99.90;;;;;;5050596;28;20033;-88
2021/01/22 00:26:06;;;;;;;3.28;1.77;;;4.90;99.90;;;;;;5050652;28;20385;-89
2021/01/22 00:28:33;;;;;;;3.25;2.22;;;4.90;99.90;;;;;;5049785;28;20040;-88
2021/01/22 00:30:59;;;;;;;4.80;2.72;;;4.90;99.90;;;;;;5049800;28;20033;-91
2021/01/22 00:33:24;;;;;;;3.35;2.65;;;4.80;99.90;;;;;;5049360;28;20028;-89
2021/01/22 00:35:50;;;;;;;4.15;2.90;;;4.80;99.90;;;;;;5053415;28;20029;-88
2021/01/22 00:38:16;;;;;;;3.30;2.47;;;4.70;99.90;;;;;;5054200;28;20130;-88
2021/01/22 00:40:42;;;;;;;4.05;2.45;;;4.70;99.90;;;;;;5053527;28;20127;-89
2021/01/22 00:43:08;;;;;;;3.53;2.45;;;4.60;99.90;;;;;;5053115;28;20033;-89
2021/01/22 00:45:34;;;;;;;2.80;1.80;;;4.60;99.90;;;;;;5053555;28;20404;-88
2021/01/22 00:48:01;;;;;;;3.05;2.05;;;4.60;99.90;;;;;;5033060;28;20032;-88
2021/01/22 00:50:27;;;;;;;2.70;1.48;;;4.50;99.90;;;;;;5038764;28;20053;-88
2021/01/22 00:52:55;;;;;;;3.38;1.77;;;4.50;99.90;;;;;;5052452;28;20029;-89
2021/01/22 00:55:22;;;;;;;3.05;1.42;;;4.40;99.90;;;;;;5055131;28;20052;-88
2021/01/22 00:57:48;;;;;;;3.33;1.60;;;4.30;99.90;;;;;;5055690;28;20099;-89
2021/01/22 01:00:14;;;;;;;3.85;1.70;;;4.20;99.90;;;;;;5055544;28;20028;-88
2021/01/22 01:02:42;;;;;;;2.95;1.85;;;4.20;99.90;;;;;;5055545;28;20067;-89
2021/01/22 01:05:09;;;;;;;3.85;2.47;;;4.20;99.90;;;;;;5038631;28;20057;-89
2021/01/22 01:07:35;;;;;;;2.97;2.10;;;4.20;99.90;;;;;;5056225;28;20025;-90
2021/01/22 01:10:02;;;;;;;3.63;2.50;;;4.10;99.90;;;;;;5055277;28;20048;-89
2021/01/22 01:12:27;;;;;;;3.58;2.20;;;4.10;99.90;;;;;;5054853;28;20021;-88
2021/01/22 01:14:53;;;;;;;2.78;1.98;;;4.10;99.90;;;;;;5038761;28;20029;-88
2021/01/22 01:17:19;;;;;;;2.80;1.98;;;4.20;99.90;;;;;;5055194;28;20114;-88
2021/01/22 01:19:45;;;;;;;2.47;1.50;;;4.10;99.90;;;;;;5055471;28;20052;-89
2021/01/22 01:22:11;;;;;;;3.50;2.13;;;4.20;99.90;;;;;;5054800;28;20388;-90
2021/01/22 01:24:36;;;;;;;2.15;1.70;;;4.20;99.90;;;;;;5055342;28;20448;-89
2021/01/22 01:27:02;;;;;;;2.65;1.80;;;4.20;99.90;;;;;;5054387;28;20024;-90
2021/01/22 01:29:28;;;;;;;2.85;1.70;;;4.20;99.90;;;;;;5054180;28;20044;-89
2021/01/22 01:31:53;;;;;;;3.17;2.00;;;4.20;99.90;;;;;;5055973;28;20029;-89
2021/01/22 01:34:20;;;;;;;3.72;1.88;;;4.10;99.90;;;;;;5055993;28;20079;-88
2021/01/22 01:36:45;;;;;;;3.67;1.70;;;4.20;99.90;;;;;;5054311;28;20033;-89
2021/01/22 01:39:11;;;;;;;4.05;2.15;;;4.20;99.90;;;;;;5055391;28;20025;-89
2021/01/22 01:41:37;;;;;;;4.15;2.33;;;4.20;99.90;;;;;;5055512;28;20491;-89
2021/01/22 01:44:05;;;;;;;3.45;2.38;;;4.20;99.90;;;;;;5054650;28;20036;-90
2021/01/22 01:46:31;;;;;;;4.40;2.35;;;4.30;99.90;;;;;;5038169;28;20033;-89
2021/01/22 01:48:57;;;;;;;3.78;1.98;;;4.20;99.90;;;;;;5055582;28;20032;-89
2021/01/22 01:51:26;;;;;;;3.50;2.17;;;4.30;99.90;;;;;;5053632;28;20025;-89
2021/01/22 01:53:53;;;;;;;4.25;2.20;;;4.30;99.90;;;;;;5073530;28;20024;-91
2021/01/22 01:56:19;;;;;;;6.18;3.10;;;4.30;99.90;;;;;;5071023;28;20131;-91
2021/01/22 01:58:45;;;;;;;5.35;4.13;;;4.30;99.90;;;;;;5075072;28;20039;-90
2021/01/22 02:01:13;;;;;;;5.68;3.95;;;4.30;99.90;;;;;;5068250;28;20025;-90
2021/01/22 02:03:39;;;;;;;7.28;4.93;;;4.30;99.90;;;;;;5051607;28;20049;-89
2021/01/22 02:06:05;;;;;;;6.13;4.63;;;4.20;99.90;;;;;;5040255;28;20072;-90
2021/01/22 02:08:32;;;;;;;6.80;5.10;;;4.20;99.90;;;;;;5059891;28;20088;-89
2021/01/22 02:11:01;;;;;;;7.65;5.10;;;4.20;99.90;;;;;;5054536;28;20032;-90
2021/01/22 02:13:31;;;;;;;7.10;5.00;;;4.20;99.90;;;;;;5054641;28;20445;-91
2021/01/22 02:16:00;;;;;;;8.57;6.00;;;4.20;99.90;;;;;;5054520;28;20132;-91
2021/01/22 02:18:27;;;;;;;10.80;7.07;;;4.10;99.90;;;;;;5054194;28;20055;-90
2021/01/22 02:21:02;;;;;;;10.15;6.72;;;4.20;99.90;;;;;;5054077;28;20025;-89
2021/01/22 02:23:30;;;;;;;10.20;6.68;;;4.10;99.90;;;;;;5054413;28;20036;-89
2021/01/22 02:26:31;;;;;;;9.50;6.47;;;4.20;99.90;;;;;;5059134;28;20161;-90
2021/01/22 02:29:03;;;;;;;13.13;8.00;;;4.10;99.90;;;;;;5065595;28;20384;-89
2021/01/22 02:31:33;;;;;;;11.82;7.13;;;4.10;99.90;;;;;;5054670;28;20020;-88
2021/01/22 02:34:05;;;;;;;16.00;9.77;;;4.10;99.90;;;;;;5054541;28;20063;-89
2021/01/22 02:36:35;;;;;;;13.68;9.32;;;4.10;99.90;;;;;;5056024;28;20021;-89
2021/01/22 02:39:04;;;;;;;16.90;10.20;;;4.00;99.90;;;;;;5041140;28;20029;-90
2021/01/22 02:41:37;;;;;;;14.43;9.23;;;4.00;99.90;;;;;;5044720;28;20112;-89
2021/01/22 02:44:05;;;;;;;17.48;10.98;;;4.00;99.90;;;;;;5046478;28;20047;-89
2021/01/22 02:46:33;;;;;;;15.68;10.38;;;4.00;99.90;;;;;;5054572;28;20025;-89
2021/01/22 02:49:01;;;;;;;16.45;10.60;;;4.00;99.90;;;;;;5034889;28;20028;-88
2021/01/22 02:51:27;;;;;;;16.85;10.82;;;4.00;99.90;;;;;;5052277;28;20037;-89
2021/01/22 02:53:58;;;;;;;16.67;9.98;;;4.00;99.90;;;;;;5053372;28;20033;-88
2021/01/22 02:56:42;;;;;;;16.05;11.13;;;3.90;99.90;;;;;;5051483;28;20204;-89
2021/01/22 02:59:27;;;;;;;19.50;11.90;;;4.00;99.90;;;;;;5053544;28;20114;-88
2021/01/22 03:02:17;;;;;;;20.17;11.77;;;3.90;99.90;;;;;;5053492;28;20025;-89
2021/01/22 03:04:45;;;;;;;21.17;12.05;;;3.90;99.90;;;;;;5053338;28;20021;-89
2021/01/22 03:07:22;;;;;;;20.10;12.73;;;3.90;99.90;;;;;;5052999;28;20057;-89
2021/01/22 03:09:52;;;;;;;20.67;13.18;;;3.80;99.90;;;;;;5036457;28;20029;-88
2021/01/22 03:12:18;;;;;;;20.70;13.40;;;3.80;99.90;;;;;;5053720;28;20024;-89
2021/01/22 03:14:48;;;;;;;20.15;14.23;;;3.80;99.90;;;;;;5053480;28;20144;-88
2021/01/22 03:17:18;;;;;;;19.48;14.15;;;3.80;99.90;;;;;;5053468;28;20460;-88
2021/01/22 03:19:46;;;;;;;20.10;13.65;;;3.80;99.90;;;;;;5054459;28;20021;-89
2021/01/22 03:22:14;;;;;;;18.25;13.88;;;3.80;99.90;;;;;;5053193;28;20115;-88
2021/01/22 03:24:42;;;;;;;20.50;13.23;;;3.80;99.90;;;;;;5053474;28;20124;-88
2021/01/22 03:27:10;;;;;;;19.13;12.50;;;3.70;99.90;;;;;;5037140;28;20048;-89
2021/01/22 03:29:37;;;;;;;17.30;12.55;;;3.80;99.90;;;;;;5052886;28;20029;-90
2021/01/22 03:32:05;;;;;;;15.90;10.75;;;3.70;99.90;;;;;;5053794;28;20095;-88
2021/01/22 03:34:31;;;;;;;13.75;10.63;;;3.80;99.90;;;;;;5036822;28;20036;-89
2021/01/22 03:36:58;;;;;;;16.80;11.80;;;3.80;99.90;;;;;;5053931;28;20113;-89
2021/01/22 03:39:28;;;;;;;15.85;11.07;;;3.80;99.90;;;;;;5052904;28;20390;-88
2021/01/22 03:41:58;;;;;;;14.80;10.57;;;3.90;99.90;;;;;;5053396;28;20116;-88
2021/01/22 03:44:24;;;;;;;15.75;9.85;;;3.90;99.90;;;;;;5054556;28;20021;-88
2021/01/22 03:46:51;;;;;;;13.65;9.73;;;3.90;99.90;;;;;;5054285;28;20029;-89
2021/01/22 03:49:18;;;;;;;14.18;9.60;;;3.90;99.90;;;;;;5054616;28;20036;-87
2021/01/22 03:51:45;;;;;;;12.38;8.65;;;3.80;99.90;;;;;;5052824;28;20021;-89
2021/01/22 03:54:11;;;;;;;12.05;8.27;;;3.90;99.90;;;;;;5053353;28;20138;-89
2021/01/22 03:56:37;;;;;;;11.70;7.47;;;3.80;99.90;;;;;;5052656;28;20144;-88
2021/01/22 03:59:03;;;;;;;9.75;6.63;;;3.70;99.90;;;;;;5053668;28;20040;-88
2021/01/22 04:01:31;;;;;;;10.70;6.20;;;3.70;99.90;;;;;;5053110;28;20044;-88
2021/01/22 04:03:57;;;;;;;10.63;6.25;;;3.70;99.90;;;;;;5036715;28;20503;-90
2021/01/22 04:06:25;;;;;;;9.25;5.32;;;3.70;99.90;;;;;;5052308;28;20025;-88
2021/01/22 04:08:51;;;;;;;6.78;5.00;;;3.70;99.90;;;;;;5056297;28;20136;-88
2021/01/22 04:11:18;;;;;;;9.48;5.10;;;3.70;99.90;;;;;;5057905;28;20024;-89
2021/01/22 04:13:44;;;;;;;8.52;5.03;;;3.70;99.90;;;;;;5056865;28;20021;-88
2021/01/22 04:16:14;;;;;;;8.43;4.78;;;3.70;99.90;;;;;;5023600;28;20029;-89
2021/01/22 04:18:41;;;;;;;8.63;4.60;;;3.70;99.90;;;;;;5056242;28;20017;-88
2021/01/22 04:21:07;;;;;;;7.43;4.30;;;3.70;99.90;;;;;;5055928;28;20033;-87
2021/01/22 04:23:34;;;;;;;8.25;4.43;;;3.80;99.90;;;;;;5056473;28;20045;-88
2021/01/22 04:26:00;;;;;;;6.75;3.95;;;3.80;99.90;;;;;;5055944;28;20036;-89
2021/01/22 04:28:28;;;;;;;8.95;4.38;;;3.70;99.90;;;;;;5057764;28;20025;-88
2021/01/22 04:30:54;;;;;;;6.97;4.00;;;3.70;99.90;;;;;;5039761;28;20048;-89
2021/01/22 04:33:21;;;;;;;10.10;4.97;;;3.80;99.90;;;;;;5039528;28;20032;-89
2021/01/22 04:35:47;;;;;;;8.30;4.55;;;3.80;99.90;;;;;;5053811;28;20043;-89
2021/01/22 04:38:16;;;;;;;9.98;4.88;;;3.70;99.90;;;;;;5056074;28;20372;-89
2021/01/22 04:40:43;;;;;;;7.45;5.35;;;3.70;99.90;;;;;;5039937;28;20045;-89
2021/01/22 04:43:11;;;;;;;8.95;5.15;;;3.70;99.90;;;;;;5039757;28;20044;-89
2021/01/22 04:45:39;;;;;;;9.65;5.68;;;3.70;99.90;;;;;;5057615;28;20025;-89
2021/01/22 04:48:09;;;;;;;10.85;5.95;;;3.80;99.90;;;;;;5057306;28;20017;-89
2021/01/22 04:50:39;;;;;;;10.35;6.88;;;3.80;99.90;;;;;;5055471;28;20425;-89
2021/01/22 04:53:10;;;;;;;10.15;6.72;;;3.80;99.90;;;;;;5055460;28;20472;-90
2021/01/22 04:55:43;;;;;;;10.52;6.45;;;3.80;99.90;;;;;;5038842;28;20408;-89
2021/01/22 04:58:11;;;;;;;12.13;7.57;;;3.90;99.90;;;;;;5055847;28;20108;-88
2021/01/22 05:00:38;;;;;;;10.50;7.45;;;3.80;99.90;;;;;;5056055;28;20025;-88
2021/01/22 05:03:06;;;;;;;13.70;8.02;;;3.80;99.90;;;;;;5055225;28;20102;-89
2021/01/22 05:05:32;;;;;;;14.93;9.32;;;3.80;99.90;;;;;;5055635;28;20025;-89
2021/01/22 05:07:59;;;;;;;17.92;11.23;;;3.80;99.90;;;;;;5056726;28;20029;-89
2021/01/22 05:10:27;;;;;;;16.35;11.75;;;3.80;99.90;;;;;;5056642;28;20025;-90
2021/01/22 05:12:55;;;;;;;16.42;12.85;;;3.80;99.90;;;;;;5056740;28;20115;-90
2021/01/22 05:15:26;;;;;;;20.35;15.20;;;3.80;99.90;;;;;;5055330;28;20120;-88
2021/01/22 05:18:03;;;;;;;22.55;16.45;;;3.80;99.90;;;;;;5055461;28;20021;-89
2021/01/22 05:20:38;;;;;;;27.70;18.75;;;3.90;99.90;;;;;;5054756;28;20029;-88
2021/01/22 05:23:05;;;;;;;29.92;19.73;;;3.90;99.90;;;;;;5055418;28;20031;-88
2021/01/22 05:25:33;;;;;;;29.80;21.83;;;3.90;99.90;;;;;;5055823;28;20086;-89
2021/01/22 05:28:02;;;;;;;30.90;22.48;;;3.90;99.90;;;;;;5055288;28;20029;-89
2021/01/22 05:30:31;;;;;;;31.75;22.30;;;3.80;99.90;;;;;;5055223;28;20024;-88
2021/01/22 05:33:16;;;;;;;34.17;23.67;;;3.80;99.90;;;;;;5054306;28;20033;-90
2021/01/22 05:35:42;;;;;;;30.73;24.17;;;3.80;99.90;;;;;;5054945;28;20098;-89
2021/01/22 05:38:08;;;;;;;31.52;23.13;;;3.80;99.90;;;;;;5055030;28;20410;-89
2021/01/22 05:40:37;;;;;;;36.42;24.67;;;3.80;99.90;;;;;;5056063;28;20487;-88
2021/01/22 05:43:11;;;;;;;37.58;25.60;;;3.80;99.90;;;;;;5054957;28;20025;-89
2021/01/22 05:45:44;;;;;;;32.40;23.13;;;3.90;99.90;;;;;;5055129;28;20029;-90
2021/01/22 05:48:18;;;;;;;31.80;24.08;;;3.90;99.90;;;;;;5054007;28;20032;-89
2021/01/22 05:50:55;;;;;;;38.42;26.45;;;3.90;99.90;;;;;;5054553;28;20043;-89
2021/01/22 05:53:22;;;;;;;37.90;25.33;;;3.80;99.90;;;;;;5053792;28;20025;-90
2021/01/22 05:56:06;;;;;;;36.90;26.25;;;3.80;99.90;;;;;;5054208;28;20049;-90
2021/01/22 05:58:35;;;;;;;37.90;26.25;;;3.80;99.90;;;;;;5054599;28;20032;-89
2021/01/22 06:01:18;;;;;;;38.90;27.20;;;3.80;99.90;;;;;;5037163;28;20033;-91
2021/01/22 06:03:46;;;;;;;44.22;29.10;;;3.80;99.90;;;;;;5053556;28;20056;-89
2021/01/22 06:06:15;;;;;;;39.08;26.88;;;3.80;99.90;;;;;;5053979;28;20017;-89
2021/01/22 06:09:29;;;;;;;42.30;29.20;;;3.80;99.90;;;;;;5053741;28;20070;-89
2021/01/22 06:11:56;;;;;;;40.47;27.48;;;3.90;99.90;;;;;;5010668;28;20052;-90
2021/01/22 06:14:22;;;;;;;41.40;28.42;;;3.80;99.90;;;;;;5052336;28;20472;-89
2021/01/22 06:16:50;;;;;;;46.92;32.70;;;3.90;99.90;;;;;;5052205;28;20040;-90
2021/01/22 06:19:22;;;;;;;43.10;28.80;;;3.90;99.90;;;;;;5046500;28;20120;-88
2021/01/22 06:22:08;;;;;;;40.30;28.53;;;3.90;99.90;;;;;;5034232;28;20025;-89
2021/01/22 06:24:37;;;;;;;46.97;32.13;;;3.90;99.90;;;;;;5034633;28;20465;-89
2021/01/22 06:27:07;;;;;;;47.20;31.08;;;3.90;99.90;;;;;;5035342;28;20389;-90
2021/01/22 06:29:37;;;;;;;47.92;32.33;;;3.90;99.90;;;;;;5017982;28;20029;-90
2021/01/22 06:32:07;;;;;;;44.38;30.45;;;3.80;99.90;;;;;;5033052;28;20148;-89
2021/01/22 06:34:33;;;;;;;44.15;28.77;;;3.80;99.90;;;;;;5033945;28;20026;-92
2021/01/22 06:37:00;;;;;;;46.13;29.63;;;3.80;99.90;;;;;;5034381;28;20229;-90
2021/01/22 06:39:28;;;;;;;42.55;28.70;;;3.70;99.90;;;;;;5035200;28;20108;-89
2021/01/22 06:42:00;;;;;;;43.40;30.05;;;3.70;99.90;;;;;;5033656;28;20029;-89
2021/01/22 06:44:29;;;;;;;40.75;27.08;;;3.60;99.90;;;;;;5033927;28;20025;-90
2021/01/22 06:46:58;;;;;;;39.38;26.27;;;3.60;99.90;;;;;;5033624;28;20056;-88
2021/01/22 06:49:31;;;;;;;44.88;27.55;;;3.60;99.90;;;;;;5033759;28;20018;-88
2021/01/22 06:52:13;;;;;;;42.00;28.02;;;3.50;99.90;;;;;;5033247;28;20033;-88
2021/01/22 06:54:57;;;;;;;37.90;24.98;;;3.50;99.90;;;;;;5033530;28;20473;-88
2021/01/22 06:57:24;;;;;;;42.42;26.48;;;3.40;99.90;;;;;;5034596;28;20048;-88
2021/01/22 06:59:50;;;;;;;36.05;25.98;;;3.50;99.90;;;;;;5033230;28;20136;-89
2021/01/22 07:02:36;;;;;;;37.83;23.70;;;3.40;99.90;;;;;;5016546;28;20559;-89
2021/01/22 07:05:24;;;;;;;44.08;28.27;;;3.40;99.90;;;;;;5033525;28;20022;-89
2021/01/22 07:07:54;;;;;;;38.38;25.67;;;3.40;99.90;;;;;;5034245;28;20380;-88
2021/01/22 07:10:20;;;;;;;39.75;25.23;;;3.30;99.90;;;;;;5033266;28;20029;-88
2021/01/22 07:12:49;;;;;;;36.83;25.60;;;3.30;99.90;;;;;;5032513;28;20053;-88
2021/01/22 07:15:24;;;;;;;34.92;24.73;;;3.30;99.90;;;;;;5033314;28;20477;-89
2021/01/22 07:18:04;;;;;;;40.38;24.52;;;3.30;99.90;;;;;;5033095;28;20029;-89
2021/01/22 07:20:34;;;;;;;35.42;23.58;;;3.30;99.90;;;;;;5032994;28;20042;-89
2021/01/22 07:23:02;;;;;;;36.67;23.48;;;3.30;99.90;;;;;;5050582;28;20036;-87
2021/01/22 07:25:40;;;;;;;36.15;23.98;;;3.30;99.90;;;;;;5052850;28;20098;-89
2021/01/22 07:28:32;;;;;;;37.80;25.45;;;3.30;99.90;;;;;;5053062;28;20071;-89
2021/01/22 07:30:58;;;;;;;35.42;22.75;;;3.30;99.90;;;;;;5053468;28;20429;-89
2021/01/22 07:33:30;;;;;;;31.73;21.58;;;3.30;99.90;;;;;;5036235;28;20056;-89
2021/01/22 07:36:19;;;;;;;35.78;23.77;;;3.20;99.90;;;;;;5052886;28;20082;-90
2021/01/22 07:38:52;;;;;;;39.67;26.50;;;3.30;99.90;;;;;;5036438;28;20040;-89
2021/01/22 07:41:22;;;;;;;34.58;24.45;;;3.30;99.90;;;;;;5053488;28;20041;-90
2021/01/22 07:44:01;;;;;;;39.97;25.13;;;3.30;99.90;;;;;;5056511;28;20473;-89
2021/01/22 07:46:44;;;;;;;40.28;26.58;;;3.30;99.90;;;;;;5057052;28;20032;-88
2021/01/22 07:49:14;;;;;;;38.53;24.27;;;3.30;99.90;;;;;;5057969;28;20020;-89
2021/01/22 07:51:42;;;;;;;43.03;26.15;;;3.30;99.90;;;;;;5040793;28;20057;-89
2021/01/22 07:54:11;;;;;;;39.28;23.80;;;3.30;99.90;;;;;;5057858;28;20035;-90
2021/01/22 07:56:39;;;;;;;39.42;24.50;;;3.30;99.90;;;;;;5056648;28;20041;-90
2021/01/22 07:59:07;;;;;;;40.60;25.00;;;3.40;99.90;;;;;;5056750;28;20017;-89
2021/01/22 08:01:33;;;;;;;40.20;24.40;;;3.30;99.90;;;;;;5056233;28;20384;-89
2021/01/22 08:03:59;;;;;;;34.95;23.75;;;3.30;99.90;;;;;;5057869;28;20025;-89
2021/01/22 08:06:25;;;;;;;37.78;24.02;;;3.40;99.90;;;;;;5056664;28;20021;-89
2021/01/22 08:09:12;;;;;;;37.92;22.95;;;3.40;99.90;;;;;;5039831;28;20047;-88
2021/01/22 08:11:39;;;;;;;36.65;23.25;;;3.40;99.90;;;;;;5056756;28;20054;-88
2021/01/22 08:14:07;;;;;;;39.05;23.33;;;3.50;99.90;;;;;;5056236;28;20095;-88
2021/01/22 08:16:39;;;;;;;33.38;21.67;;;3.50;99.90;;;;;;5055874;28;20036;-89
2021/01/22 08:19:06;;;;;;;34.58;21.33;;;3.50;99.90;;;;;;5057669;28;20025;-88
2021/01/22 08:21:40;;;;;;;38.85;23.88;;;3.60;99.90;;;;;;5056075;28;20052;-89
2021/01/22 08:24:10;;;;;;;36.67;24.58;;;3.60;99.90;;;;;;5055983;28;20028;-88
2021/01/22 08:26:44;;;;;;;36.17;23.55;;;3.60;99.90;;;;;;5055643;28;20435;-88
2021/01/22 08:29:12;;;;;;;35.10;23.23;;;3.60;99.90;;;;;;5057321;28;20056;-89
2021/01/22 08:31:39;;;;;;;36.03;23.65;;;3.60;99.90;;;;;;5055601;28;20017;-89
2021/01/22 08:34:06;;;;;;;36.80;23.83;;;3.60;99.90;;;;;;5039385;28;20021;-88
2021/01/22 08:36:33;;;;;;;35.40;23.00;;;3.60;99.90;;;;;;5055728;28;20021;-88
2021/01/22 08:39:01;;;;;;;34.30;23.00;;;3.70;99.90;;;;;;5057203;28;20380;-90
2021/01/22 08:41:32;;;;;;;32.22;21.17;;;3.70;99.90;;;;;;5040190;28;20116;-89
2021/01/22 08:44:01;;;;;;;31.45;21.30;;;3.70;99.90;;;;;;5058975;28;20037;-88
2021/01/22 08:46:32;;;;;;;34.07;21.53;;;3.70;99.90;;;;;;5058128;28;20045;-89
2021/01/22 08:49:11;;;;;;;30.80;19.55;;;3.70;99.90;;;;;;5057358;28;20025;-90
2021/01/22 08:51:39;;;;;;;33.88;20.23;;;3.80;99.90;;;;;;5057605;28;20086;-90
2021/01/22 08:54:07;;;;;;;34.00;21.73;;;3.80;99.90;;;;;;5039355;28;20373;-89
2021/01/22 08:56:39;;;;;;;30.80;20.77;;;3.80;99.90;;;;;;5058055;28;20049;-90
2021/01/22 08:59:09;;;;;;;32.55;20.08;;;3.90;99.90;;;;;;5057575;28;20036;-89
2021/01/22 09:01:58;;;;;;;31.58;20.00;;;3.90;99.90;;;;;;5057822;28;20457;-89
2021/01/22 09:04:34;;;;;;;27.65;19.88;;;3.90;99.90;;;;;;5055598;28;20029;-90
2021/01/22 09:07:14;;;;;;;33.25;20.20;;;3.90;99.90;;;;;;5054906;28;20025;-89
2021/01/22 09:09:48;;;;;;;33.67;19.88;;;3.90;99.90;;;;;;5056577;28;20130;-89
2021/01/22 09:12:29;;;;;;;30.85;19.70;;;4.00;99.90;;;;;;5055012;28;20063;-90
2021/01/22 09:15:07;;;;;;;33.20;20.13;;;4.00;99.90;;;;;;5038496;28;20094;-89
2021/01/22 09:17:59;;;;;;;32.45;18.85;;;4.00;99.90;;;;;;5055701;28;20129;-88
2021/01/22 09:20:27;;;;;;;26.08;17.20;;;4.10;99.90;;;;;;5055410;28;20040;-89
2021/01/22 09:23:15;;;;;;;26.75;16.92;;;4.10;99.90;;;;;;5056411;28;20393;-88
2021/01/22 09:25:41;;;;;;;27.90;17.55;;;4.20;99.90;;;;;;5055311;28;20064;-87
2021/01/22 09:28:07;;;;;;;27.63;18.52;;;4.30;99.90;;;;;;5049322;28;20457;-88
2021/01/22 09:30:34;;;;;;;26.40;18.25;;;4.30;99.90;;;;;;5034463;28;20022;-87
2021/01/22 09:33:01;;;;;;;28.63;19.65;;;4.40;99.90;;;;;;5018643;28;20041;-88
2021/01/22 09:35:47;;;;;;;29.20;18.88;;;4.40;99.90;;;;;;5035663;28;20069;-88
2021/01/22 09:38:24;;;;;;;28.42;18.55;;;4.50;99.90;;;;;;5034605;28;20029;-88
2021/01/22 09:40:52;;;;;;;28.70;16.27;;;4.60;99.90;;;;;;5035018;28;20083;-89
2021/01/22 09:43:38;;;;;;;30.52;18.50;;;4.70;99.90;;;;;;5035807;28;20052;-88
2021/01/22 09:46:05;;;;;;;23.63;15.77;;;4.70;99.90;;;;;;5035023;28;20025;-88
2021/01/22 09:48:31;;;;;;;27.50;16.17;;;4.70;99.90;;;;;;5022978;28;20037;-88
2021/01/22 09:51:01;;;;;;;21.95;16.63;;;4.70;99.90;;;;;;5033912;28;20453;-89
2021/01/22 09:53:27;;;;;;;29.75;16.58;;;4.80;99.90;;;;;;5018224;28;20037;-88
2021/01/22 09:55:56;;;;;;;23.38;15.98;;;5.00;99.90;;;;;;5032931;28;20041;-88
2021/01/22 09:58:28;;;;;;;22.33;15.80;;;5.40;99.90;;;;;;5034578;28;20025;-88
2021/01/22 10:00:55;;;;;;;22.15;16.33;;;6.00;99.90;;;;;;5034944;28;20025;-89
2021/01/22 10:03:27;;;;;;;21.98;14.68;;;6.60;99.90;;;;;;5034217;28;20049;-88
2021/01/22 10:05:58;;;;;;;20.95;13.52;;;6.80;99.90;;;;;;5034649;28;20032;-90
2021/01/22 10:08:24;;;;;;;20.50;13.18;;;7.00;99.90;;;;;;5018348;28;20026;-89
2021/01/22 10:10:52;;;;;;;15.80;11.45;;;7.30;99.90;;;;;;5034020;28;20078;-89
2021/01/22 10:13:20;;;;;;;16.17;10.80;;;7.80;99.90;;;;;;5033623;28;20021;-88
2021/01/22 10:15:47;;;;;;;13.18;9.50;;;8.40;99.90;;;;;;5034185;28;20044;-89
2021/01/22 10:18:13;;;;;;;15.52;9.13;;;8.90;99.90;;;;;;5034436;28;20036;-91
2021/01/22 10:20:39;;;;;;;16.05;9.15;;;9.20;99.90;;;;;;5017467;28;20061;-89
2021/01/22 10:23:05;;;;;;;15.38;8.80;;;9.50;99.90;;;;;;5017093;28;20488;-90
2021/01/22 10:25:33;;;;;;;14.60;8.25;;;9.90;99.90;;;;;;5033964;28;20362;-90
2021/01/22 10:28:00;;;;;;;13.32;7.75;;;10.10;99.90;;;;;;5034088;28;20033;-90
2021/01/22 10:30:26;;;;;;;12.27;7.53;;;10.10;99.90;;;;;;5050650;28;20033;-90
2021/01/22 10:33:01;;;;;;;12.02;7.05;;;10.10;99.90;;;;;;5053888;28;20464;-90
2021/01/22 10:35:32;;;;;;;11.45;7.30;;;10.20;99.90;;;;;;5053897;28;20021;-91
2021/01/22 10:37:58;;;;;;;14.73;6.90;;;10.50;99.90;;;;;;5054259;28;20496;-90
2021/01/22 10:40:25;;;;;;;11.27;6.82;;;10.90;99.90;;;;;;5054134;28;20021;-90
2021/01/22 10:42:57;;;;;;;11.48;6.60;;;11.10;99.90;;;;;;5020429;28;20056;-90
2021/01/22 10:45:24;;;;;;;;;;;11.10;99.90;;;;;;5054979;28;20452;-89
2021/01/22 10:47:52;;;;;;;14.00;6.63;;;11.40;99.90;;;;;;5054813;28;19944;-89
2021/01/22 10:50:20;;;;;;;10.93;6.53;;;11.10;99.90;;;;;;5054468;28;20362;-89
2021/01/22 10:52:46;;;;;;;12.38;5.72;;;11.10;99.90;;;;;;5053369;28;20086;-89
2021/01/22 10:55:15;;;;;;;10.45;5.53;;;11.10;99.90;;;;;;5052540;28;20029;-90
2021/01/22 10:57:42;;;;;;;8.32;4.53;;;10.60;99.90;;;;;;5033281;28;20129;-89
2021/01/22 11:00:09;;;;;;;13.57;6.10;;;10.30;99.90;;;;;;5033409;28;20037;-89
2021/01/22 11:02:36;;;;;;;9.88;5.10;;;10.00;99.90;;;;;;5033393;28;20086;-89
2021/01/22 11:05:02;;;;;;;9.25;5.80;;;10.10;99.90;;;;;;5033339;28;20029;-89
2021/01/22 11:07:32;;;;;;;14.98;5.65;;;10.30;99.90;;;;;;5033914;28;20108;-88
2021/01/22 11:09:58;;;;;;;8.68;5.35;;;9.80;99.90;;;;;;5033705;28;20116;-88
2021/01/22 11:12:26;;;;;;;8.77;5.18;;;9.80;99.90;;;;;;5016359;28;20025;-88
2021/01/22 11:14:57;;;;;;;8.68;5.13;;;9.70;99.90;;;;;;5016420;28;20026;-88
2021/01/22 11:17:28;;;;;;;14.63;5.70;;;9.60;99.90;;;;;;5032361;28;20553;-88
2021/01/22 11:20:08;;;;;;;10.82;4.95;;;9.10;99.90;;;;;;5016692;28;20175;-87
2021/01/22 11:22:35;;;;;;;9.88;5.22;;;9.00;99.90;;;;;;5032865;28;20025;-88
2021/01/22 11:25:02;;;;;;;9.55;4.93;;;9.00;99.90;;;;;;5033630;28;20029;-88
2021/01/22 11:27:29;;;;;;;10.70;5.35;;;9.00;99.90;;;;;;5033283;28;20032;-88
2021/01/22 11:29:58;;;;;;;10.27;5.47;;;8.80;99.90;;;;;;5033899;28;20048;-88
2021/01/22 11:32:25;;;;;;;9.88;5.13;;;9.00;99.90;;;;;;5033873;28;20454;-89
2021/01/22 11:35:00;;;;;;;9.80;4.93;;;9.30;99.90;;;;;;5032397;28;20500;-89
2021/01/22 11:37:29;;;;;;;10.75;5.10;;;9.30;99.90;;;;;;5032482;28;20029;-89
2021/01/22 11:39:55;;;;;;;13.07;5.40;;;9.40;99.90;;;;;;5032833;28;20018;-88
2021/01/22 11:42:24;;;;;;;10.68;4.88;;;9.90;99.90;;;;;;5032424;28;20381;-88
2021/01/22 11:44:59;;;;;;;9.95;4.80;;;10.40;99.90;;;;;;5020422;28;20076;-89
2021/01/22 11:47:29;;;;;;;9.60;4.20;;;10.90;99.90;;;;;;5013047;28;20034;-89
2021/01/22 11:49:59;;;;;;;12.00;4.65;;;11.00;99.90;;;;;;5012907;28;20018;-89
2021/01/22 11:52:28;;;;;;;13.57;4.88;;;10.90;99.90;;;;;;5023527;28;20124;-89
2021/01/22 11:54:58;;;;;;;10.63;3.90;;;10.80;99.90;;;;;;5032351;28;20108;-89
2021/01/22 11:57:28;;;;;;;9.02;4.18;;;10.40;99.90;;;;;;5035598;28;20049;-88
2021/01/22 11:59:58;;;;;;;11.60;3.85;;;10.30;99.90;;;;;;5051748;28;20029;-89
2021/01/22 12:02:27;;;;;;;13.38;4.60;;;9.90;99.90;;;;;;5050265;28;20041;-89
2021/01/22 12:04:58;;;;;;;9.40;4.88;;;10.20;99.90;;;;;;5031116;28;20029;-90
2021/01/22 12:07:29;;;;;;;8.93;3.70;;;10.70;99.90;;;;;;5050076;28;20041;-90
2021/01/22 12:09:59;;;;;;;9.85;4.15;;;10.80;99.90;;;;;;5049583;28;20025;-90
2021/01/22 12:12:50;;;;;;;11.05;3.92;;;10.60;99.90;;;;;;5051993;28;20112;-90
2021/01/22 12:15:34;;;;;;;9.50;4.00;;;10.00;99.90;;;;;;5050172;28;20043;-89
2021/01/22 12:18:05;;;;;;;;;;;9.70;99.90;;;;;;5035820;28;20041;-88
2021/01/22 12:20:34;;;;;;;9.32;3.95;;;9.30;99.90;;;;;;5050529;28;19904;-89
2021/01/22 12:23:03;;;;;;;11.10;4.43;;;8.90;99.90;;;;;;5035069;28;20346;-91
2021/01/22 12:25:32;;;;;;;10.48;4.18;;;8.50;99.90;;;;;;5034453;28;20488;-89
2021/01/22 12:28:03;;;;;;;9.35;4.15;;;8.40;99.90;;;;;;5051085;28;20070;-91
2021/01/22 12:30:32;;;;;;;8.35;3.75;;;8.30;99.90;;;;;;5055579;28;20036;-90
2021/01/22 12:33:13;;;;;;;12.05;3.75;;;8.30;99.90;;;;;;5054773;28;20062;-89
2021/01/22 12:35:51;;;;;;;11.25;4.45;;;8.20;99.90;;;;;;5037921;28;20086;-88
2021/01/22 12:38:35;;;;;;;12.45;3.88;;;8.10;99.90;;;;;;5052088;28;20021;-89
2021/01/22 12:41:08;;;;;;;10.48;3.70;;;7.90;99.90;;;;;;5054806;28;20037;-90
2021/01/22 12:43:40;;;;;;;11.52;4.18;;;7.80;99.90;;;;;;5054359;28;20025;-89
2021/01/22 12:46:08;;;;;;;12.52;3.55;;;7.80;99.90;;;;;;5054717;28;20384;-88
2021/01/22 12:48:47;;;;;;;13.23;3.88;;;7.70;99.90;;;;;;5054201;28;20029;-91
2021/01/22 12:51:25;;;;;;;12.15;3.47;;;7.70;99.90;;;;;;5029945;28;20116;-92
2021/01/22 12:53:59;;;;;;;8.90;3.42;;;7.60;99.90;;;;;;5053471;28;20024;-91
2021/01/22 12:56:33;;;;;;;10.77;3.92;;;7.50;99.90;;;;;;5053661;28;20053;-91
2021/01/22 12:59:10;;;;;;;14.85;4.00;;;7.50;99.90;;;;;;5035415;28;20465;-93
2021/01/22 13:01:42;;;;;;;12.05;3.63;;;7.50;99.90;;;;;;5046055;28;20102;-92